sensor_id;sensor_type;location;lat;lon;timestamp;P1;durP1;ratioP1;P2;durP2;ratioP2
44428;SDS011;30134;47.866;-4.222;2022-10-14T00:02:11;2.10;;;1.20;;
44428;SDS011;30134;47.866;-4.222;2022-10-14T00:04:37;3.20;;;1.10;;
44428;SDS011;30134;47.866;-4.222;2022-10-14T00:07:05;1.60;;;1.20;;
44428;SDS011;30134;47.866;-4.222;2022-10-14T00:09:31;1.42;;;0.90;;
44428;SDS011;30134;47.866;-4.222;2022-10-14T00:11:56;1.30;;;1.00;;
44428;SDS011;30134;47.866;-4.222;2022-10-14T00:14:22;1.52;;;1.00;;
44428;SDS011;30134;47.866;-4.222;2022-10-14T00:16:51;1.40;;;0.98;;
44428;SDS011;30134;47.866;-4.222;2022-10-14T00:19:18;2.40;;;1.15;;
44428;SDS011;30134;47.866;-4.222;2022-10-14T00:21:44;1.88;;;1.00;;
44428;SDS011;30134;47.866;-4.222;2022-10-14T00:24:11;2.78;;;1.38;;
44428;SDS011;30134;47.866;-4.222;2022-10-14T00:26:38;2.53;;;1.45;;
44428;SDS011;30134;47.866;-4.222;2022-10-14T00:29:07;1.10;;;0.90;;
44428;SDS011;30134;47.866;-4.222;2022-10-14T00:34:03;1.05;;;0.93;;
44428;SDS011;30134;47.866;-4.222;2022-10-14T00:36:29;1.83;;;1.10;;
44428;SDS011;30134;47.866;-4.222;2022-10-14T00:38:56;1.42;;;1.10;;
44428;SDS011;30134;47.866;-4.222;2022-10-14T00:41:30;0.93;;;0.90;;
44428;SDS011;30134;47.866;-4.222;2022-10-14T00:46:42;1.20;;;1.00;;
44428;SDS011;30134;47.866;-4.222;2022-10-14T00:52:10;1.48;;;1.00;;
44428;SDS011;30134;47.866;-4.222;2022-10-14T00:57:15;1.52;;;0.90;;
44428;SDS011;30134;47.866;-4.222;2022-10-14T00:59:41;1.45;;;1.10;;
44428;SDS011;30134;47.866;-4.222;2022-10-14T01:02:07;1.67;;;1.20;;
44428;SDS011;30134;47.866;-4.222;2022-10-14T01:04:37;0.90;;;0.80;;
44428;SDS011;30134;47.866;-4.222;2022-10-14T01:07:10;1.25;;;1.00;;
44428;SDS011;30134;47.866;-4.222;2022-10-14T01:10:07;1.40;;;1.17;;
44428;SDS011;30134;47.866;-4.222;2022-10-14T01:12:50;1.33;;;0.90;;
44428;SDS011;30134;47.866;-4.222;2022-10-14T01:32:50;1.45;;;0.90;;
44428;SDS011;30134;47.866;-4.222;2022-10-14T01:38:27;1.10;;;0.95;;
44428;SDS011;30134;47.866;-4.222;2022-10-14T01:43:53;0.90;;;0.80;;
44428;SDS011;30134;47.866;-4.222;2022-10-14T01:46:24;1.03;;;0.90;;
44428;SDS011;30134;47.866;-4.222;2022-10-14T01:48:53;1.30;;;1.00;;
44428;SDS011;30134;47.866;-4.222;2022-10-14T01:51:29;1.20;;;0.85;;
44428;SDS011;30134;47.866;-4.222;2022-10-14T01:54:08;1.23;;;0.90;;
44428;SDS011;30134;47.866;-4.222;2022-10-14T01:59:06;1.10;;;1.00;;
44428;SDS011;30134;47.866;-4.222;2022-10-14T02:01:35;1.63;;;1.10;;
44428;SDS011;30134;47.866;-4.222;2022-10-14T02:04:01;1.33;;;1.02;;
44428;SDS011;30134;47.866;-4.222;2022-10-14T02:06:37;1.85;;;1.17;;
44428;SDS011;30134;47.866;-4.222;2022-10-14T02:12:32;1.20;;;1.10;;
44428;SDS011;30134;47.866;-4.222;2022-10-14T02:15:31;1.55;;;1.30;;
44428;SDS011;30134;47.866;-4.222;2022-10-14T02:18:37;1.30;;;1.20;;
44428;SDS011;30134;47.866;-4.222;2022-10-14T02:21:11;1.45;;;1.25;;
44428;SDS011;30134;47.866;-4.222;2022-10-14T02:24:39;1.58;;;1.35;;
44428;SDS011;30134;47.866;-4.222;2022-10-14T02:27:11;1.70;;;1.15;;
44428;SDS011;30134;47.866;-4.222;2022-10-14T02:29:41;1.67;;;1.42;;
44428;SDS011;30134;47.866;-4.222;2022-10-14T02:32:11;2.72;;;1.60;;
44428;SDS011;30134;47.866;-4.222;2022-10-14T02:34:42;1.83;;;1.38;;
44428;SDS011;30134;47.866;-4.222;2022-10-14T02:37:13;1.98;;;1.25;;
44428;SDS011;30134;47.866;-4.222;2022-10-14T02:39:42;1.40;;;1.30;;
44428;SDS011;30134;47.866;-4.222;2022-10-14T02:42:21;1.48;;;1.35;;
44428;SDS011;30134;47.866;-4.222;2022-10-14T02:44:57;2.03;;;1.70;;
44428;SDS011;30134;47.866;-4.222;2022-10-14T02:47:25;2.15;;;1.70;;
44428;SDS011;30134;47.866;-4.222;2022-10-14T02:49:52;2.08;;;1.70;;
44428;SDS011;30134;47.866;-4.222;2022-10-14T02:52:18;2.35;;;1.70;;
44428;SDS011;30134;47.866;-4.222;2022-10-14T02:54:44;2.40;;;1.67;;
44428;SDS011;30134;47.866;-4.222;2022-10-14T02:57:10;2.20;;;1.67;;
44428;SDS011;30134;47.866;-4.222;2022-10-14T02:59:39;2.28;;;1.60;;
44428;SDS011;30134;47.866;-4.222;2022-10-14T03:02:05;2.22;;;1.90;;
44428;SDS011;30134;47.866;-4.222;2022-10-14T03:04:32;3.33;;;1.85;;
44428;SDS011;30134;47.866;-4.222;2022-10-14T03:06:59;2.65;;;2.00;;
44428;SDS011;30134;47.866;-4.222;2022-10-14T03:09:25;2.20;;;1.98;;
44428;SDS011;30134;47.866;-4.222;2022-10-14T03:11:51;3.10;;;2.08;;
44428;SDS011;30134;47.866;-4.222;2022-10-14T03:14:17;2.50;;;1.80;;
44428;SDS011;30134;47.866;-4.222;2022-10-14T03:16:43;2.75;;;2.00;;
44428;SDS011;30134;47.866;-4.222;2022-10-14T03:19:08;3.25;;;2.20;;
44428;SDS011;30134;47.866;-4.222;2022-10-14T03:21:34;3.30;;;2.60;;
44428;SDS011;30134;47.866;-4.222;2022-10-14T03:24:00;3.08;;;2.15;;
44428;SDS011;30134;47.866;-4.222;2022-10-14T03:26:27;2.55;;;2.10;;
44428;SDS011;30134;47.866;-4.222;2022-10-14T03:28:53;2.92;;;2.35;;
44428;SDS011;30134;47.866;-4.222;2022-10-14T03:31:19;2.50;;;2.17;;
44428;SDS011;30134;47.866;-4.222;2022-10-14T03:33:45;2.60;;;2.17;;
44428;SDS011;30134;47.866;-4.222;2022-10-14T03:36:11;2.10;;;1.75;;
44428;SDS011;30134;47.866;-4.222;2022-10-14T03:38:38;3.78;;;2.45;;
44428;SDS011;30134;47.866;-4.222;2022-10-14T03:41:04;2.65;;;2.10;;
44428;SDS011;30134;47.866;-4.222;2022-10-14T03:43:30;4.00;;;2.45;;
44428;SDS011;30134;47.866;-4.222;2022-10-14T03:45:55;3.38;;;2.30;;
44428;SDS011;30134;47.866;-4.222;2022-10-14T03:48:21;2.45;;;2.20;;
44428;SDS011;30134;47.866;-4.222;2022-10-14T03:50:47;3.42;;;2.70;;
44428;SDS011;30134;47.866;-4.222;2022-10-14T03:53:14;2.60;;;2.35;;
44428;SDS011;30134;47.866;-4.222;2022-10-14T03:55:40;3.40;;;2.63;;
44428;SDS011;30134;47.866;-4.222;2022-10-14T03:58:05;3.53;;;2.80;;
44428;SDS011;30134;47.866;-4.222;2022-10-14T04:00:32;3.55;;;2.47;;
44428;SDS011;30134;47.866;-4.222;2022-10-14T04:02:59;3.33;;;2.58;;
44428;SDS011;30134;47.866;-4.222;2022-10-14T04:05:26;3.00;;;2.50;;
44428;SDS011;30134;47.866;-4.222;2022-10-14T04:08:00;3.20;;;2.58;;
44428;SDS011;30134;47.866;-4.222;2022-10-14T04:10:26;3.92;;;2.90;;
44428;SDS011;30134;47.866;-4.222;2022-10-14T04:12:56;3.30;;;2.70;;
44428;SDS011;30134;47.866;-4.222;2022-10-14T04:15:22;3.63;;;2.65;;
44428;SDS011;30134;47.866;-4.222;2022-10-14T04:17:48;3.00;;;2.60;;
44428;SDS011;30134;47.866;-4.222;2022-10-14T04:20:14;4.13;;;2.88;;
44428;SDS011;30134;47.866;-4.222;2022-10-14T04:22:41;3.80;;;3.00;;
44428;SDS011;30134;47.866;-4.222;2022-10-14T04:25:08;3.30;;;2.70;;
44428;SDS011;30134;47.866;-4.222;2022-10-14T04:27:34;4.30;;;2.70;;
44428;SDS011;30134;47.866;-4.222;2022-10-14T04:30:00;3.35;;;2.65;;
44428;SDS011;30134;47.866;-4.222;2022-10-14T04:32:26;3.50;;;2.78;;
44428;SDS011;30134;47.866;-4.222;2022-10-14T04:34:52;3.85;;;2.65;;
44428;SDS011;30134;47.866;-4.222;2022-10-14T04:37:19;3.80;;;2.60;;
44428;SDS011;30134;47.866;-4.222;2022-10-14T04:39:45;3.67;;;2.75;;
44428;SDS011;30134;47.866;-4.222;2022-10-14T04:42:11;4.57;;;3.45;;
44428;SDS011;30134;47.866;-4.222;2022-10-14T04:44:37;3.95;;;3.00;;
44428;SDS011;30134;47.866;-4.222;2022-10-14T04:47:03;3.20;;;2.90;;
44428;SDS011;30134;47.866;-4.222;2022-10-14T04:49:29;4.05;;;3.33;;
44428;SDS011;30134;47.866;-4.222;2022-10-14T04:51:57;3.63;;;2.88;;
44428;SDS011;30134;47.866;-4.222;2022-10-14T04:54:24;4.47;;;3.10;;
44428;SDS011;30134;47.866;-4.222;2022-10-14T04:56:50;5.13;;;3.30;;
44428;SDS011;30134;47.866;-4.222;2022-10-14T04:59:16;4.60;;;3.53;;
44428;SDS011;30134;47.866;-4.222;2022-10-14T05:01:42;4.45;;;3.28;;
44428;SDS011;30134;47.866;-4.222;2022-10-14T05:04:07;4.53;;;3.28;;
44428;SDS011;30134;47.866;-4.222;2022-10-14T05:06:36;4.75;;;3.20;;
44428;SDS011;30134;47.866;-4.222;2022-10-14T05:09:03;4.68;;;3.45;;
44428;SDS011;30134;47.866;-4.222;2022-10-14T05:11:30;5.07;;;3.20;;
44428;SDS011;30134;47.866;-4.222;2022-10-14T05:13:57;4.88;;;3.63;;
44428;SDS011;30134;47.866;-4.222;2022-10-14T05:16:24;9.13;;;3.58;;
44428;SDS011;30134;47.866;-4.222;2022-10-14T05:18:52;5.60;;;3.58;;
44428;SDS011;30134;47.866;-4.222;2022-10-14T05:21:18;4.32;;;3.50;;
44428;SDS011;30134;47.866;-4.222;2022-10-14T05:23:46;6.80;;;3.97;;
44428;SDS011;30134;47.866;-4.222;2022-10-14T05:26:12;4.70;;;3.63;;
44428;SDS011;30134;47.866;-4.222;2022-10-14T05:28:40;4.70;;;3.60;;
44428;SDS011;30134;47.866;-4.222;2022-10-14T05:31:06;5.13;;;3.42;;
44428;SDS011;30134;47.866;-4.222;2022-10-14T05:33:32;5.22;;;3.70;;
44428;SDS011;30134;47.866;-4.222;2022-10-14T05:36:00;5.07;;;3.70;;
44428;SDS011;30134;47.866;-4.222;2022-10-14T05:38:26;5.10;;;3.60;;
44428;SDS011;30134;47.866;-4.222;2022-10-14T05:40:54;4.47;;;3.38;;
44428;SDS011;30134;47.866;-4.222;2022-10-14T05:43:21;6.43;;;4.05;;
44428;SDS011;30134;47.866;-4.222;2022-10-14T05:45:51;6.05;;;3.97;;
44428;SDS011;30134;47.866;-4.222;2022-10-14T05:48:17;5.85;;;4.07;;
44428;SDS011;30134;47.866;-4.222;2022-10-14T05:50:43;5.78;;;3.75;;
44428;SDS011;30134;47.866;-4.222;2022-10-14T05:53:10;6.57;;;4.05;;
44428;SDS011;30134;47.866;-4.222;2022-10-14T05:55:36;6.32;;;3.97;;
44428;SDS011;30134;47.866;-4.222;2022-10-14T05:58:02;6.75;;;3.70;;
44428;SDS011;30134;47.866;-4.222;2022-10-14T06:00:28;5.82;;;4.00;;
44428;SDS011;30134;47.866;-4.222;2022-10-14T06:02:58;6.85;;;3.58;;
44428;SDS011;30134;47.866;-4.222;2022-10-14T06:05:24;5.05;;;3.33;;
44428;SDS011;30134;47.866;-4.222;2022-10-14T06:07:53;6.35;;;3.38;;
44428;SDS011;30134;47.866;-4.222;2022-10-14T06:10:19;4.70;;;3.17;;
44428;SDS011;30134;47.866;-4.222;2022-10-14T06:12:49;6.38;;;3.28;;
44428;SDS011;30134;47.866;-4.222;2022-10-14T06:15:15;6.15;;;3.83;;
44428;SDS011;30134;47.866;-4.222;2022-10-14T06:17:41;6.30;;;3.53;;
44428;SDS011;30134;47.866;-4.222;2022-10-14T06:20:07;8.30;;;3.45;;
44428;SDS011;30134;47.866;-4.222;2022-10-14T06:22:34;5.88;;;3.60;;
44428;SDS011;30134;47.866;-4.222;2022-10-14T06:25:01;4.88;;;3.50;;
44428;SDS011;30134;47.866;-4.222;2022-10-14T06:27:28;8.38;;;3.90;;
44428;SDS011;30134;47.866;-4.222;2022-10-14T06:29:54;6.30;;;3.60;;
44428;SDS011;30134;47.866;-4.222;2022-10-14T06:32:23;6.40;;;3.72;;
44428;SDS011;30134;47.866;-4.222;2022-10-14T06:34:50;5.82;;;3.97;;
44428;SDS011;30134;47.866;-4.222;2022-10-14T06:37:17;6.57;;;4.07;;
44428;SDS011;30134;47.866;-4.222;2022-10-14T06:39:43;6.55;;;3.90;;
44428;SDS011;30134;47.866;-4.222;2022-10-14T06:42:09;6.93;;;3.88;;
44428;SDS011;30134;47.866;-4.222;2022-10-14T06:44:35;8.77;;;3.75;;
44428;SDS011;30134;47.866;-4.222;2022-10-14T06:47:01;9.30;;;3.92;;
44428;SDS011;30134;47.866;-4.222;2022-10-14T06:49:27;11.18;;;3.88;;
44428;SDS011;30134;47.866;-4.222;2022-10-14T06:51:53;7.22;;;3.60;;
44428;SDS011;30134;47.866;-4.222;2022-10-14T06:54:19;12.18;;;4.68;;
44428;SDS011;30134;47.866;-4.222;2022-10-14T06:56:45;10.50;;;3.67;;
44428;SDS011;30134;47.866;-4.222;2022-10-14T06:59:11;18.77;;;4.93;;
44428;SDS011;30134;47.866;-4.222;2022-10-14T07:01:38;17.17;;;4.97;;
44428;SDS011;30134;47.866;-4.222;2022-10-14T07:04:04;14.05;;;4.63;;
44428;SDS011;30134;47.866;-4.222;2022-10-14T07:06:30;10.23;;;4.28;;
44428;SDS011;30134;47.866;-4.222;2022-10-14T07:08:59;12.77;;;4.47;;
44428;SDS011;30134;47.866;-4.222;2022-10-14T07:11:25;7.63;;;3.50;;
44428;SDS011;30134;47.866;-4.222;2022-10-14T07:13:51;14.55;;;4.30;;
44428;SDS011;30134;47.866;-4.222;2022-10-14T07:16:17;10.73;;;3.58;;
44428;SDS011;30134;47.866;-4.222;2022-10-14T07:18:42;11.10;;;3.88;;
44428;SDS011;30134;47.866;-4.222;2022-10-14T07:21:08;13.15;;;4.28;;
44428;SDS011;30134;47.866;-4.222;2022-10-14T07:23:34;13.60;;;4.07;;
44428;SDS011;30134;47.866;-4.222;2022-10-14T07:26:00;11.73;;;4.03;;
44428;SDS011;30134;47.866;-4.222;2022-10-14T07:28:27;11.98;;;4.13;;
44428;SDS011;30134;47.866;-4.222;2022-10-14T07:31:00;12.43;;;4.05;;
44428;SDS011;30134;47.866;-4.222;2022-10-14T07:33:34;10.40;;;4.38;;
44428;SDS011;30134;47.866;-4.222;2022-10-14T07:36:06;12.17;;;4.13;;
44428;SDS011;30134;47.866;-4.222;2022-10-14T07:38:39;12.38;;;3.97;;
44428;SDS011;30134;47.866;-4.222;2022-10-14T07:41:06;13.55;;;3.92;;
44428;SDS011;30134;47.866;-4.222;2022-10-14T07:43:41;12.57;;;3.92;;
44428;SDS011;30134;47.866;-4.222;2022-10-14T07:46:16;13.43;;;4.10;;
44428;SDS011;30134;47.866;-4.222;2022-10-14T07:48:57;12.95;;;3.90;;
44428;SDS011;30134;47.866;-4.222;2022-10-14T07:51:29;13.82;;;4.05;;
44428;SDS011;30134;47.866;-4.222;2022-10-14T07:53:57;13.07;;;3.97;;
44428;SDS011;30134;47.866;-4.222;2022-10-14T07:56:24;11.48;;;4.00;;
44428;SDS011;30134;47.866;-4.222;2022-10-14T07:58:51;10.85;;;3.80;;
44428;SDS011;30134;47.866;-4.222;2022-10-14T08:01:17;13.27;;;3.72;;
44428;SDS011;30134;47.866;-4.222;2022-10-14T08:03:46;10.13;;;3.60;;
44428;SDS011;30134;47.866;-4.222;2022-10-14T08:06:12;10.00;;;3.78;;
44428;SDS011;30134;47.866;-4.222;2022-10-14T08:08:39;10.40;;;3.78;;
44428;SDS011;30134;47.866;-4.222;2022-10-14T08:11:07;11.27;;;4.20;;
44428;SDS011;30134;47.866;-4.222;2022-10-14T08:13:42;11.07;;;3.80;;
44428;SDS011;30134;47.866;-4.222;2022-10-14T08:16:11;9.68;;;3.58;;
44428;SDS011;30134;47.866;-4.222;2022-10-14T08:18:49;9.48;;;3.58;;
44428;SDS011;30134;47.866;-4.222;2022-10-14T08:21:16;11.82;;;3.83;;
44428;SDS011;30134;47.866;-4.222;2022-10-14T08:23:44;11.40;;;3.83;;
44428;SDS011;30134;47.866;-4.222;2022-10-14T08:26:20;11.10;;;3.22;;
44428;SDS011;30134;47.866;-4.222;2022-10-14T08:28:55;14.43;;;4.03;;
44428;SDS011;30134;47.866;-4.222;2022-10-14T08:31:34;9.38;;;3.60;;
44428;SDS011;30134;47.866;-4.222;2022-10-14T08:34:00;10.70;;;3.60;;
44428;SDS011;30134;47.866;-4.222;2022-10-14T08:36:26;10.60;;;3.90;;
44428;SDS011;30134;47.866;-4.222;2022-10-14T08:38:53;11.18;;;3.67;;
44428;SDS011;30134;47.866;-4.222;2022-10-14T08:44:24;11.02;;;3.67;;
44428;SDS011;30134;47.866;-4.222;2022-10-14T08:46:56;8.52;;;3.72;;
44428;SDS011;30134;47.866;-4.222;2022-10-14T08:58:13;9.73;;;3.35;;
44428;SDS011;30134;47.866;-4.222;2022-10-14T09:01:08;7.45;;;3.30;;
44428;SDS011;30134;47.866;-4.222;2022-10-14T09:03:43;9.18;;;3.35;;
44428;SDS011;30134;47.866;-4.222;2022-10-14T09:08:56;9.45;;;3.25;;
44428;SDS011;30134;47.866;-4.222;2022-10-14T09:12:01;11.48;;;3.45;;
44428;SDS011;30134;47.866;-4.222;2022-10-14T09:14:36;8.45;;;3.10;;
44428;SDS011;30134;47.866;-4.222;2022-10-14T09:17:18;6.88;;;3.38;;
44428;SDS011;30134;47.866;-4.222;2022-10-14T09:19:52;7.93;;;2.90;;
44428;SDS011;30134;47.866;-4.222;2022-10-14T09:22:27;7.82;;;3.20;;
44428;SDS011;30134;47.866;-4.222;2022-10-14T09:24:53;8.73;;;3.40;;
44428;SDS011;30134;47.866;-4.222;2022-10-14T09:27:19;9.00;;;3.38;;
44428;SDS011;30134;47.866;-4.222;2022-10-14T09:30:03;7.22;;;2.97;;
44428;SDS011;30134;47.866;-4.222;2022-10-14T09:32:44;8.32;;;3.25;;
44428;SDS011;30134;47.866;-4.222;2022-10-14T09:35:19;9.48;;;3.42;;
44428;SDS011;30134;47.866;-4.222;2022-10-14T09:37:49;9.77;;;3.20;;
44428;SDS011;30134;47.866;-4.222;2022-10-14T09:40:17;7.90;;;3.05;;
44428;SDS011;30134;47.866;-4.222;2022-10-14T09:42:59;8.95;;;2.90;;
44428;SDS011;30134;47.866;-4.222;2022-10-14T09:45:46;9.13;;;3.10;;
44428;SDS011;30134;47.866;-4.222;2022-10-14T09:51:00;6.95;;;2.97;;
44428;SDS011;30134;47.866;-4.222;2022-10-14T09:53:29;7.03;;;2.90;;
44428;SDS011;30134;47.866;-4.222;2022-10-14T09:58:44;9.23;;;3.10;;
44428;SDS011;30134;47.866;-4.222;2022-10-14T10:01:55;8.50;;;3.30;;
44428;SDS011;30134;47.866;-4.222;2022-10-14T10:04:39;6.93;;;2.92;;
44428;SDS011;30134;47.866;-4.222;2022-10-14T10:10:00;7.93;;;2.97;;
44428;SDS011;30134;47.866;-4.222;2022-10-14T10:12:42;7.95;;;2.95;;
44428;SDS011;30134;47.866;-4.222;2022-10-14T10:15:18;7.25;;;2.75;;
44428;SDS011;30134;47.866;-4.222;2022-10-14T10:17:48;8.70;;;3.25;;
44428;SDS011;30134;47.866;-4.222;2022-10-14T10:22:56;8.60;;;3.75;;
44428;SDS011;30134;47.866;-4.222;2022-10-14T10:25:42;7.50;;;3.03;;
44428;SDS011;30134;47.866;-4.222;2022-10-14T10:28:15;6.28;;;3.10;;
44428;SDS011;30134;47.866;-4.222;2022-10-14T10:31:11;8.18;;;3.10;;
44428;SDS011;30134;47.866;-4.222;2022-10-14T10:36:43;6.45;;;2.97;;
44428;SDS011;30134;47.866;-4.222;2022-10-14T10:39:38;11.90;;;3.47;;
44428;SDS011;30134;47.866;-4.222;2022-10-14T10:42:19;8.07;;;3.20;;
44428;SDS011;30134;47.866;-4.222;2022-10-14T10:51:15;6.95;;;3.00;;
44428;SDS011;30134;47.866;-4.222;2022-10-14T10:56:58;8.35;;;3.22;;
44428;SDS011;30134;47.866;-4.222;2022-10-14T11:08:15;7.13;;;3.45;;
44428;SDS011;30134;47.866;-4.222;2022-10-14T11:42:25;7.43;;;3.20;;
44428;SDS011;30134;47.866;-4.222;2022-10-14T11:47:40;6.43;;;3.38;;
44428;SDS011;30134;47.866;-4.222;2022-10-14T11:52:55;6.43;;;3.50;;
44428;SDS011;30134;47.866;-4.222;2022-10-14T11:55:33;7.43;;;3.72;;
44428;SDS011;30134;47.866;-4.222;2022-10-14T11:58:14;6.60;;;3.50;;
44428;SDS011;30134;47.866;-4.222;2022-10-14T12:00:46;7.22;;;3.20;;
44428;SDS011;30134;47.866;-4.222;2022-10-14T12:06:03;6.53;;;3.50;;
44428;SDS011;30134;47.866;-4.222;2022-10-14T12:14:46;6.65;;;3.55;;
44428;SDS011;30134;47.866;-4.222;2022-10-14T12:16:58;5.80;;;3.30;;
44428;SDS011;30134;47.866;-4.222;2022-10-14T12:19:30;8.05;;;3.67;;
44428;SDS011;30134;47.866;-4.222;2022-10-14T12:21:59;6.47;;;3.65;;
44428;SDS011;30134;47.866;-4.222;2022-10-14T12:24:41;7.05;;;3.33;;
44428;SDS011;30134;47.866;-4.222;2022-10-14T12:27:33;8.70;;;3.45;;
44428;SDS011;30134;47.866;-4.222;2022-10-14T12:30:00;6.95;;;3.20;;
44428;SDS011;30134;47.866;-4.222;2022-10-14T12:32:28;4.85;;;2.90;;
44428;SDS011;30134;47.866;-4.222;2022-10-14T12:34:59;5.85;;;3.40;;
44428;SDS011;30134;47.866;-4.222;2022-10-14T12:45:29;5.43;;;3.08;;
44428;SDS011;30134;47.866;-4.222;2022-10-14T12:48:20;5.30;;;2.60;;
44428;SDS011;30134;47.866;-4.222;2022-10-14T12:50:56;6.15;;;3.17;;
44428;SDS011;30134;47.866;-4.222;2022-10-14T12:53:35;5.80;;;3.20;;
44428;SDS011;30134;47.866;-4.222;2022-10-14T12:56:05;7.00;;;3.22;;
44428;SDS011;30134;47.866;-4.222;2022-10-14T12:58:36;5.10;;;3.13;;
44428;SDS011;30134;47.866;-4.222;2022-10-14T13:01:18;5.43;;;2.85;;
44428;SDS011;30134;47.866;-4.222;2022-10-14T13:03:46;5.75;;;2.88;;
44428;SDS011;30134;47.866;-4.222;2022-10-14T13:11:37;5.82;;;3.05;;
44428;SDS011;30134;47.866;-4.222;2022-10-14T13:16:58;4.70;;;2.50;;
44428;SDS011;30134;47.866;-4.222;2022-10-14T13:19:48;4.75;;;2.65;;
44428;SDS011;30134;47.866;-4.222;2022-10-14T13:24:52;10.55;;;2.80;;
44428;SDS011;30134;47.866;-4.222;2022-10-14T13:27:41;12.25;;;3.70;;
44428;SDS011;30134;47.866;-4.222;2022-10-14T13:30:34;22.55;;;3.88;;
44428;SDS011;30134;47.866;-4.222;2022-10-14T13:33:21;12.70;;;3.53;;
44428;SDS011;30134;47.866;-4.222;2022-10-14T13:36:04;24.13;;;3.60;;
44428;SDS011;30134;47.866;-4.222;2022-10-14T13:38:46;16.15;;;3.72;;
44428;SDS011;30134;47.866;-4.222;2022-10-14T13:41:20;17.75;;;3.45;;
44428;SDS011;30134;47.866;-4.222;2022-10-14T13:43:52;12.83;;;3.43;;
44428;SDS011;30134;47.866;-4.222;2022-10-14T13:46:38;18.05;;;3.53;;
44428;SDS011;30134;47.866;-4.222;2022-10-14T13:49:19;13.60;;;3.03;;
44428;SDS011;30134;47.866;-4.222;2022-10-14T13:52:04;16.40;;;3.40;;
44428;SDS011;30134;47.866;-4.222;2022-10-14T13:54:37;13.40;;;3.10;;
44428;SDS011;30134;47.866;-4.222;2022-10-14T13:57:13;12.00;;;3.33;;
44428;SDS011;30134;47.866;-4.222;2022-10-14T13:59:42;6.82;;;2.50;;
44428;SDS011;30134;47.866;-4.222;2022-10-14T14:02:22;8.55;;;2.70;;
44428;SDS011;30134;47.866;-4.222;2022-10-14T14:04:55;10.70;;;3.00;;
44428;SDS011;30134;47.866;-4.222;2022-10-14T14:07:24;10.00;;;3.40;;
44428;SDS011;30134;47.866;-4.222;2022-10-14T14:10:01;8.98;;;2.55;;
44428;SDS011;30134;47.866;-4.222;2022-10-14T14:12:31;8.10;;;2.35;;
44428;SDS011;30134;47.866;-4.222;2022-10-14T14:14:58;6.47;;;3.13;;
44428;SDS011;30134;47.866;-4.222;2022-10-14T14:17:26;8.55;;;2.72;;
44428;SDS011;30134;47.866;-4.222;2022-10-14T14:19:56;8.40;;;2.75;;
44428;SDS011;30134;47.866;-4.222;2022-10-14T14:22:23;4.75;;;2.70;;
44428;SDS011;30134;47.866;-4.222;2022-10-14T14:27:48;5.95;;;2.65;;
44428;SDS011;30134;47.866;-4.222;2022-10-14T14:30:37;7.63;;;2.75;;
44428;SDS011;30134;47.866;-4.222;2022-10-14T14:33:06;6.18;;;2.20;;
44428;SDS011;30134;47.866;-4.222;2022-10-14T14:35:37;5.47;;;2.38;;
44428;SDS011;30134;47.866;-4.222;2022-10-14T14:38:22;4.75;;;2.28;;
44428;SDS011;30134;47.866;-4.222;2022-10-14T14:41:00;5.22;;;2.47;;
44428;SDS011;30134;47.866;-4.222;2022-10-14T14:43:29;5.97;;;2.35;;
44428;SDS011;30134;47.866;-4.222;2022-10-14T14:45:59;5.78;;;2.08;;
44428;SDS011;30134;47.866;-4.222;2022-10-14T14:48:27;4.05;;;2.40;;
44428;SDS011;30134;47.866;-4.222;2022-10-14T14:50:55;8.90;;;2.30;;
44428;SDS011;30134;47.866;-4.222;2022-10-14T14:53:22;4.18;;;2.00;;
44428;SDS011;30134;47.866;-4.222;2022-10-14T14:58:44;3.45;;;1.95;;
44428;SDS011;30134;47.866;-4.222;2022-10-14T15:01:18;4.25;;;2.10;;
44428;SDS011;30134;47.866;-4.222;2022-10-14T15:03:55;4.22;;;2.05;;
44428;SDS011;30134;47.866;-4.222;2022-10-14T15:06:41;4.15;;;2.00;;
44428;SDS011;30134;47.866;-4.222;2022-10-14T15:12:15;5.20;;;2.10;;
44428;SDS011;30134;47.866;-4.222;2022-10-14T15:14:58;3.58;;;1.98;;
44428;SDS011;30134;47.866;-4.222;2022-10-14T15:17:37;3.92;;;2.00;;
44428;SDS011;30134;47.866;-4.222;2022-10-14T15:22:48;3.85;;;2.10;;
44428;SDS011;30134;47.866;-4.222;2022-10-14T15:27:47;2.88;;;1.80;;
44428;SDS011;30134;47.866;-4.222;2022-10-14T15:35:42;4.20;;;2.20;;
44428;SDS011;30134;47.866;-4.222;2022-10-14T15:38:10;3.15;;;1.92;;
44428;SDS011;30134;47.866;-4.222;2022-10-14T15:40:43;3.42;;;1.67;;
44428;SDS011;30134;47.866;-4.222;2022-10-14T15:43:29;3.72;;;2.10;;
44428;SDS011;30134;47.866;-4.222;2022-10-14T15:45:58;3.10;;;1.70;;
44428;SDS011;30134;47.866;-4.222;2022-10-14T15:48:53;4.93;;;1.88;;
44428;SDS011;30134;47.866;-4.222;2022-10-14T15:51:21;3.00;;;1.80;;
44428;SDS011;30134;47.866;-4.222;2022-10-14T15:53:48;2.95;;;1.65;;
44428;SDS011;30134;47.866;-4.222;2022-10-14T15:56:14;2.55;;;1.75;;
44428;SDS011;30134;47.866;-4.222;2022-10-14T15:58:43;2.25;;;1.63;;
44428;SDS011;30134;47.866;-4.222;2022-10-14T16:01:11;5.38;;;1.75;;
44428;SDS011;30134;47.866;-4.222;2022-10-14T16:03:44;4.00;;;2.20;;
44428;SDS011;30134;47.866;-4.222;2022-10-14T16:06:12;2.22;;;1.33;;
44428;SDS011;30134;47.866;-4.222;2022-10-14T16:08:42;2.90;;;1.80;;
44428;SDS011;30134;47.866;-4.222;2022-10-14T16:11:16;3.20;;;1.80;;
44428;SDS011;30134;47.866;-4.222;2022-10-14T16:13:49;3.67;;;1.50;;
44428;SDS011;30134;47.866;-4.222;2022-10-14T16:16:18;2.10;;;1.50;;
44428;SDS011;30134;47.866;-4.222;2022-10-14T16:19:08;3.00;;;1.80;;
44428;SDS011;30134;47.866;-4.222;2022-10-14T16:21:34;2.88;;;1.70;;
44428;SDS011;30134;47.866;-4.222;2022-10-14T16:24:01;3.55;;;1.48;;
44428;SDS011;30134;47.866;-4.222;2022-10-14T16:26:29;2.92;;;1.73;;
44428;SDS011;30134;47.866;-4.222;2022-10-14T16:28:55;1.95;;;1.40;;
44428;SDS011;30134;47.866;-4.222;2022-10-14T16:31:22;2.65;;;1.42;;
44428;SDS011;30134;47.866;-4.222;2022-10-14T16:33:50;1.92;;;1.40;;
44428;SDS011;30134;47.866;-4.222;2022-10-14T16:36:18;2.05;;;1.50;;
44428;SDS011;30134;47.866;-4.222;2022-10-14T16:38:45;1.90;;;1.45;;
44428;SDS011;30134;47.866;-4.222;2022-10-14T16:41:11;3.33;;;1.60;;
44428;SDS011;30134;47.866;-4.222;2022-10-14T16:43:37;2.28;;;1.30;;
44428;SDS011;30134;47.866;-4.222;2022-10-14T16:46:03;3.78;;;1.70;;
44428;SDS011;30134;47.866;-4.222;2022-10-14T16:48:31;2.22;;;1.52;;
44428;SDS011;30134;47.866;-4.222;2022-10-14T16:50:58;2.88;;;1.60;;
44428;SDS011;30134;47.866;-4.222;2022-10-14T16:53:24;2.00;;;1.33;;
44428;SDS011;30134;47.866;-4.222;2022-10-14T16:56:18;2.78;;;1.30;;
44428;SDS011;30134;47.866;-4.222;2022-10-14T16:59:17;1.90;;;1.48;;
44428;SDS011;30134;47.866;-4.222;2022-10-14T17:01:44;3.75;;;1.58;;
44428;SDS011;30134;47.866;-4.222;2022-10-14T17:04:12;2.13;;;1.42;;
44428;SDS011;30134;47.866;-4.222;2022-10-14T17:06:39;2.17;;;1.35;;
44428;SDS011;30134;47.866;-4.222;2022-10-14T17:09:05;2.67;;;1.50;;
44428;SDS011;30134;47.866;-4.222;2022-10-14T17:11:32;2.20;;;1.30;;
44428;SDS011;30134;47.866;-4.222;2022-10-14T17:14:01;2.33;;;1.40;;
44428;SDS011;30134;47.866;-4.222;2022-10-14T17:16:29;1.60;;;1.38;;
44428;SDS011;30134;47.866;-4.222;2022-10-14T17:18:56;1.90;;;1.40;;
44428;SDS011;30134;47.866;-4.222;2022-10-14T17:21:23;3.00;;;1.20;;
44428;SDS011;30134;47.866;-4.222;2022-10-14T17:23:54;4.43;;;1.42;;
44428;SDS011;30134;47.866;-4.222;2022-10-14T17:26:27;1.90;;;1.25;;
44428;SDS011;30134;47.866;-4.222;2022-10-14T17:28:55;3.70;;;1.50;;
44428;SDS011;30134;47.866;-4.222;2022-10-14T17:31:22;1.90;;;1.25;;
44428;SDS011;30134;47.866;-4.222;2022-10-14T17:33:49;2.92;;;1.40;;
44428;SDS011;30134;47.866;-4.222;2022-10-14T17:36:20;2.33;;;1.48;;
44428;SDS011;30134;47.866;-4.222;2022-10-14T17:38:53;1.80;;;1.20;;
44428;SDS011;30134;47.866;-4.222;2022-10-14T17:41:22;1.85;;;1.30;;
44428;SDS011;30134;47.866;-4.222;2022-10-14T17:43:50;2.03;;;1.58;;
44428;SDS011;30134;47.866;-4.222;2022-10-14T17:46:18;1.92;;;1.20;;
44428;SDS011;30134;47.866;-4.222;2022-10-14T17:48:54;1.88;;;1.02;;